sensor_id;sensor_type;location;lat;lon;timestamp;P1;durP1;ratioP1;P2;durP2;ratioP2
2119;SDS011;1066;52.540;13.420;2023-07-20T00:00:14;4.40;;;3.67;;
2119;SDS011;1066;52.540;13.420;2023-07-20T00:02:40;3.97;;;3.57;;
2119;SDS011;1066;52.540;13.420;2023-07-20T00:05:05;6.30;;;3.40;;
2119;SDS011;1066;52.540;13.420;2023-07-20T00:07:31;3.97;;;3.37;;
2119;SDS011;1066;52.540;13.420;2023-07-20T00:09:56;4.30;;;3.43;;
2119;SDS011;1066;52.540;13.420;2023-07-20T00:12:22;4.23;;;3.70;;
2119;SDS011;1066;52.540;13.420;2023-07-20T00:14:47;4.90;;;4.57;;
2119;SDS011;1066;52.540;13.420;2023-07-20T00:17:12;4.30;;;3.93;;
2119;SDS011;1066;52.540;13.420;2023-07-20T00:19:37;3.63;;;3.33;;
2119;SDS011;1066;52.540;13.420;2023-07-20T00:22:03;4.47;;;3.60;;
2119;SDS011;1066;52.540;13.420;2023-07-20T00:24:30;4.73;;;3.70;;
2119;SDS011;1066;52.540;13.420;2023-07-20T00:26:55;3.77;;;3.23;;
2119;SDS011;1066;52.540;13.420;2023-07-20T00:29:20;3.60;;;3.30;;
2119;SDS011;1066;52.540;13.420;2023-07-20T00:31:45;5.03;;;3.83;;
2119;SDS011;1066;52.540;13.420;2023-07-20T00:34:11;4.23;;;3.60;;
2119;SDS011;1066;52.540;13.420;2023-07-20T00:36:36;3.93;;;3.50;;
2119;SDS011;1066;52.540;13.420;2023-07-20T00:39:02;4.30;;;3.90;;
2119;SDS011;1066;52.540;13.420;2023-07-20T00:41:27;3.70;;;3.50;;
2119;SDS011;1066;52.540;13.420;2023-07-20T00:43:54;5.33;;;3.80;;
2119;SDS011;1066;52.540;13.420;2023-07-20T00:46:20;3.97;;;3.67;;
2119;SDS011;1066;52.540;13.420;2023-07-20T00:48:46;4.73;;;4.03;;
2119;SDS011;1066;52.540;13.420;2023-07-20T00:51:11;4.43;;;4.03;;
2119;SDS011;1066;52.540;13.420;2023-07-20T00:53:37;4.50;;;4.10;;
2119;SDS011;1066;52.540;13.420;2023-07-20T00:56:02;7.50;;;3.83;;
2119;SDS011;1066;52.540;13.420;2023-07-20T00:58:28;3.73;;;3.43;;
2119;SDS011;1066;52.540;13.420;2023-07-20T01:00:53;5.00;;;3.97;;
2119;SDS011;1066;52.540;13.420;2023-07-20T01:03:19;4.87;;;4.27;;
2119;SDS011;1066;52.540;13.420;2023-07-20T01:05:48;5.00;;;4.60;;
2119;SDS011;1066;52.540;13.420;2023-07-20T01:09:00;6.10;;;4.50;;
2119;SDS011;1066;52.540;13.420;2023-07-20T01:11:47;4.03;;;3.60;;
2119;SDS011;1066;52.540;13.420;2023-07-20T01:13:53;4.33;;;4.03;;
2119;SDS011;1066;52.540;13.420;2023-07-20T01:16:18;4.13;;;3.33;;
2119;SDS011;1066;52.540;13.420;2023-07-20T01:18:43;3.93;;;3.60;;
2119;SDS011;1066;52.540;13.420;2023-07-20T01:21:09;3.90;;;3.60;;
2119;SDS011;1066;52.540;13.420;2023-07-20T01:31:30;5.00;;;4.50;;
2119;SDS011;1066;52.540;13.420;2023-07-20T01:33:57;4.03;;;3.67;;
2119;SDS011;1066;52.540;13.420;2023-07-20T01:36:26;4.77;;;4.37;;
2119;SDS011;1066;52.540;13.420;2023-07-20T01:38:52;4.93;;;4.53;;
2119;SDS011;1066;52.540;13.420;2023-07-20T01:41:18;4.83;;;4.43;;
2119;SDS011;1066;52.540;13.420;2023-07-20T01:43:43;4.67;;;4.27;;
2119;SDS011;1066;52.540;13.420;2023-07-20T01:46:08;4.17;;;3.87;;
2119;SDS011;1066;52.540;13.420;2023-07-20T01:48:34;4.67;;;4.23;;
2119;SDS011;1066;52.540;13.420;2023-07-20T01:50:59;4.83;;;4.43;;
2119;SDS011;1066;52.540;13.420;2023-07-20T01:53:24;5.73;;;4.43;;
2119;SDS011;1066;52.540;13.420;2023-07-20T01:55:49;5.10;;;4.67;;
2119;SDS011;1066;52.540;13.420;2023-07-20T01:58:17;5.00;;;4.60;;
2119;SDS011;1066;52.540;13.420;2023-07-20T02:00:42;5.00;;;4.60;;
2119;SDS011;1066;52.540;13.420;2023-07-20T02:03:07;6.20;;;4.30;;
2119;SDS011;1066;52.540;13.420;2023-07-20T02:05:33;4.80;;;4.40;;
2119;SDS011;1066;52.540;13.420;2023-07-20T02:07:58;4.90;;;4.50;;
2119;SDS011;1066;52.540;13.420;2023-07-20T02:10:23;4.33;;;4.03;;
2119;SDS011;1066;52.540;13.420;2023-07-20T02:12:48;5.00;;;4.60;;
2119;SDS011;1066;52.540;13.420;2023-07-20T02:15:14;4.83;;;4.20;;
2119;SDS011;1066;52.540;13.420;2023-07-20T02:17:41;5.13;;;4.63;;
2119;SDS011;1066;52.540;13.420;2023-07-20T02:20:07;5.70;;;5.20;;
2119;SDS011;1066;52.540;13.420;2023-07-20T02:22:34;5.60;;;5.20;;
2119;SDS011;1066;52.540;13.420;2023-07-20T02:24:59;5.67;;;5.27;;
2119;SDS011;1066;52.540;13.420;2023-07-20T02:27:24;5.33;;;4.87;;
2119;SDS011;1066;52.540;13.420;2023-07-20T02:29:49;6.20;;;5.67;;
2119;SDS011;1066;52.540;13.420;2023-07-20T02:32:15;8.30;;;6.03;;
2119;SDS011;1066;52.540;13.420;2023-07-20T02:34:40;6.53;;;6.03;;
2119;SDS011;1066;52.540;13.420;2023-07-20T02:37:06;7.30;;;6.60;;
2119;SDS011;1066;52.540;13.420;2023-07-20T02:39:31;7.90;;;7.20;;
2119;SDS011;1066;52.540;13.420;2023-07-20T02:41:56;7.57;;;6.87;;
2119;SDS011;1066;52.540;13.420;2023-07-20T02:44:21;7.27;;;6.67;;
2119;SDS011;1066;52.540;13.420;2023-07-20T02:46:46;8.47;;;7.57;;
2119;SDS011;1066;52.540;13.420;2023-07-20T02:49:12;7.43;;;6.83;;
2119;SDS011;1066;52.540;13.420;2023-07-20T02:51:37;7.50;;;6.90;;
2119;SDS011;1066;52.540;13.420;2023-07-20T02:54:02;8.30;;;7.67;;
2119;SDS011;1066;52.540;13.420;2023-07-20T02:56:28;8.70;;;7.90;;
2119;SDS011;1066;52.540;13.420;2023-07-20T02:58:53;8.63;;;7.87;;
2119;SDS011;1066;52.540;13.420;2023-07-20T03:01:18;8.13;;;7.43;;
2119;SDS011;1066;52.540;13.420;2023-07-20T03:03:44;7.60;;;7.00;;
2119;SDS011;1066;52.540;13.420;2023-07-20T03:06:16;8.63;;;7.93;;
2119;SDS011;1066;52.540;13.420;2023-07-20T03:08:41;8.90;;;8.20;;
2119;SDS011;1066;52.540;13.420;2023-07-20T03:11:07;8.13;;;7.40;;
2119;SDS011;1066;52.540;13.420;2023-07-20T03:13:32;8.97;;;8.17;;
2119;SDS011;1066;52.540;13.420;2023-07-20T03:15:57;7.90;;;7.10;;
2119;SDS011;1066;52.540;13.420;2023-07-20T03:18:23;7.53;;;6.93;;
2119;SDS011;1066;52.540;13.420;2023-07-20T03:20:48;8.93;;;8.13;;
2119;SDS011;1066;52.540;13.420;2023-07-20T03:23:13;8.07;;;7.37;;
2119;SDS011;1066;52.540;13.420;2023-07-20T03:25:39;8.83;;;8.03;;
2119;SDS011;1066;52.540;13.420;2023-07-20T03:28:04;8.50;;;7.80;;
2119;SDS011;1066;52.540;13.420;2023-07-20T03:30:29;11.23;;;7.23;;
2119;SDS011;1066;52.540;13.420;2023-07-20T03:32:55;6.87;;;6.27;;
2119;SDS011;1066;52.540;13.420;2023-07-20T03:35:20;7.50;;;6.90;;
2119;SDS011;1066;52.540;13.420;2023-07-20T03:37:45;8.83;;;8.13;;
2119;SDS011;1066;52.540;13.420;2023-07-20T03:40:10;10.33;;;9.40;;
2119;SDS011;1066;52.540;13.420;2023-07-20T03:42:36;9.00;;;8.30;;
2119;SDS011;1066;52.540;13.420;2023-07-20T03:45:01;8.53;;;7.90;;
2119;SDS011;1066;52.540;13.420;2023-07-20T03:47:28;7.93;;;7.43;;
2119;SDS011;1066;52.540;13.420;2023-07-20T03:49:53;8.57;;;7.67;;
2119;SDS011;1066;52.540;13.420;2023-07-20T03:52:18;8.17;;;7.37;;
2119;SDS011;1066;52.540;13.420;2023-07-20T03:54:43;8.93;;;7.93;;
2119;SDS011;1066;52.540;13.420;2023-07-20T03:57:09;8.50;;;7.73;;
2119;SDS011;1066;52.540;13.420;2023-07-20T03:59:34;7.40;;;6.80;;
2119;SDS011;1066;52.540;13.420;2023-07-20T04:02:00;8.40;;;7.57;;
2119;SDS011;1066;52.540;13.420;2023-07-20T04:04:25;9.00;;;8.10;;
2119;SDS011;1066;52.540;13.420;2023-07-20T04:06:50;8.23;;;7.53;;
2119;SDS011;1066;52.540;13.420;2023-07-20T04:09:15;9.20;;;8.30;;
2119;SDS011;1066;52.540;13.420;2023-07-20T04:11:40;7.13;;;6.53;;
2119;SDS011;1066;52.540;13.420;2023-07-20T04:14:06;9.10;;;8.30;;
2119;SDS011;1066;52.540;13.420;2023-07-20T04:16:31;8.63;;;7.83;;
2119;SDS011;1066;52.540;13.420;2023-07-20T04:18:57;10.00;;;9.20;;
2119;SDS011;1066;52.540;13.420;2023-07-20T04:21:23;9.17;;;8.37;;
2119;SDS011;1066;52.540;13.420;2023-07-20T04:23:48;8.97;;;8.07;;
2119;SDS011;1066;52.540;13.420;2023-07-20T04:26:13;9.40;;;8.60;;
2119;SDS011;1066;52.540;13.420;2023-07-20T04:28:39;9.53;;;8.73;;
2119;SDS011;1066;52.540;13.420;2023-07-20T04:31:13;8.70;;;8.00;;
2119;SDS011;1066;52.540;13.420;2023-07-20T04:33:39;8.43;;;7.70;;
2119;SDS011;1066;52.540;13.420;2023-07-20T04:36:04;7.97;;;7.17;;
2119;SDS011;1066;52.540;13.420;2023-07-20T04:38:30;8.03;;;7.37;;
2119;SDS011;1066;52.540;13.420;2023-07-20T04:40:55;8.77;;;7.87;;
2119;SDS011;1066;52.540;13.420;2023-07-20T04:43:20;7.50;;;6.87;;
2119;SDS011;1066;52.540;13.420;2023-07-20T04:45:45;8.20;;;7.40;;
2119;SDS011;1066;52.540;13.420;2023-07-20T04:48:11;8.90;;;8.10;;
2119;SDS011;1066;52.540;13.420;2023-07-20T04:50:38;8.03;;;7.23;;
2119;SDS011;1066;52.540;13.420;2023-07-20T04:53:03;8.67;;;7.97;;
2119;SDS011;1066;52.540;13.420;2023-07-20T04:55:28;8.60;;;7.83;;
2119;SDS011;1066;52.540;13.420;2023-07-20T04:57:54;10.63;;;9.63;;
2119;SDS011;1066;52.540;13.420;2023-07-20T05:00:19;13.73;;;12.30;;
2119;SDS011;1066;52.540;13.420;2023-07-20T05:02:45;11.90;;;10.70;;
2119;SDS011;1066;52.540;13.420;2023-07-20T05:05:12;10.43;;;9.40;;
2119;SDS011;1066;52.540;13.420;2023-07-20T05:07:37;11.33;;;9.37;;
2119;SDS011;1066;52.540;13.420;2023-07-20T05:10:03;8.30;;;7.67;;
2119;SDS011;1066;52.540;13.420;2023-07-20T05:12:28;7.27;;;6.57;;
2119;SDS011;1066;52.540;13.420;2023-07-20T05:14:53;7.40;;;6.80;;
2119;SDS011;1066;52.540;13.420;2023-07-20T05:17:18;7.20;;;6.60;;
2119;SDS011;1066;52.540;13.420;2023-07-20T05:19:43;6.73;;;6.23;;
2119;SDS011;1066;52.540;13.420;2023-07-20T05:22:09;7.00;;;6.50;;
2119;SDS011;1066;52.540;13.420;2023-07-20T05:24:35;7.17;;;6.47;;
2119;SDS011;1066;52.540;13.420;2023-07-20T05:27:01;7.50;;;6.80;;
2119;SDS011;1066;52.540;13.420;2023-07-20T05:29:26;6.70;;;6.10;;
2119;SDS011;1066;52.540;13.420;2023-07-20T05:31:51;6.37;;;5.87;;
2119;SDS011;1066;52.540;13.420;2023-07-20T05:34:16;5.90;;;5.40;;
2119;SDS011;1066;52.540;13.420;2023-07-20T05:36:41;6.30;;;5.70;;
2119;SDS011;1066;52.540;13.420;2023-07-20T05:39:07;5.50;;;5.10;;
2119;SDS011;1066;52.540;13.420;2023-07-20T05:41:32;6.43;;;5.87;;
2119;SDS011;1066;52.540;13.420;2023-07-20T05:43:57;5.73;;;5.30;;
2119;SDS011;1066;52.540;13.420;2023-07-20T05:46:23;6.00;;;5.40;;
2119;SDS011;1066;52.540;13.420;2023-07-20T05:48:49;7.77;;;6.97;;
2119;SDS011;1066;52.540;13.420;2023-07-20T05:51:14;11.43;;;6.87;;
2119;SDS011;1066;52.540;13.420;2023-07-20T05:53:40;8.00;;;6.50;;
2119;SDS011;1066;52.540;13.420;2023-07-20T05:56:05;10.33;;;7.20;;
2119;SDS011;1066;52.540;13.420;2023-07-20T05:58:30;7.27;;;6.57;;
2119;SDS011;1066;52.540;13.420;2023-07-20T06:00:56;6.80;;;6.07;;
2119;SDS011;1066;52.540;13.420;2023-07-20T06:03:21;7.87;;;6.33;;
2119;SDS011;1066;52.540;13.420;2023-07-20T06:05:47;6.47;;;5.97;;
2119;SDS011;1066;52.540;13.420;2023-07-20T06:08:12;6.30;;;5.77;;
2119;SDS011;1066;52.540;13.420;2023-07-20T06:10:37;6.87;;;6.17;;
2119;SDS011;1066;52.540;13.420;2023-07-20T06:13:02;6.37;;;5.77;;
2119;SDS011;1066;52.540;13.420;2023-07-20T06:15:33;7.10;;;6.50;;
2119;SDS011;1066;52.540;13.420;2023-07-20T06:18:03;7.50;;;6.30;;
2119;SDS011;1066;52.540;13.420;2023-07-20T06:20:29;6.90;;;6.23;;
2119;SDS011;1066;52.540;13.420;2023-07-20T06:22:54;8.27;;;6.17;;
2119;SDS011;1066;52.540;13.420;2023-07-20T06:25:19;6.60;;;5.83;;
2119;SDS011;1066;52.540;13.420;2023-07-20T06:27:46;7.07;;;6.47;;
2119;SDS011;1066;52.540;13.420;2023-07-20T06:30:11;8.23;;;5.73;;
2119;SDS011;1066;52.540;13.420;2023-07-20T06:32:37;8.83;;;6.60;;
2119;SDS011;1066;52.540;13.420;2023-07-20T06:35:02;5.87;;;5.10;;
2119;SDS011;1066;52.540;13.420;2023-07-20T06:37:28;6.93;;;5.70;;
2119;SDS011;1066;52.540;13.420;2023-07-20T06:39:53;5.07;;;4.67;;
2119;SDS011;1066;52.540;13.420;2023-07-20T06:42:18;5.20;;;4.80;;
2119;SDS011;1066;52.540;13.420;2023-07-20T06:44:43;4.80;;;4.40;;
2119;SDS011;1066;52.540;13.420;2023-07-20T06:47:09;6.20;;;5.40;;
2119;SDS011;1066;52.540;13.420;2023-07-20T06:49:34;5.87;;;5.00;;
2119;SDS011;1066;52.540;13.420;2023-07-20T06:51:59;5.63;;;5.10;;
2119;SDS011;1066;52.540;13.420;2023-07-20T06:54:25;6.00;;;4.70;;
2119;SDS011;1066;52.540;13.420;2023-07-20T06:56:50;9.60;;;5.60;;
2119;SDS011;1066;52.540;13.420;2023-07-20T06:59:15;4.23;;;3.83;;
2119;SDS011;1066;52.540;13.420;2023-07-20T07:01:40;5.03;;;4.20;;
2119;SDS011;1066;52.540;13.420;2023-07-20T07:04:06;3.30;;;3.00;;
2119;SDS011;1066;52.540;13.420;2023-07-20T07:06:31;4.90;;;3.17;;
2119;SDS011;1066;52.540;13.420;2023-07-20T07:08:57;3.50;;;3.20;;
2119;SDS011;1066;52.540;13.420;2023-07-20T07:11:23;3.47;;;3.17;;
2119;SDS011;1066;52.540;13.420;2023-07-20T07:13:48;3.20;;;2.97;;
2119;SDS011;1066;52.540;13.420;2023-07-20T07:16:16;2.70;;;2.20;;
2119;SDS011;1066;52.540;13.420;2023-07-20T07:18:43;2.27;;;2.07;;
2119;SDS011;1066;52.540;13.420;2023-07-20T07:21:09;5.30;;;2.10;;
2119;SDS011;1066;52.540;13.420;2023-07-20T07:23:34;2.73;;;2.50;;
2119;SDS011;1066;52.540;13.420;2023-07-20T07:25:59;2.27;;;2.00;;
2119;SDS011;1066;52.540;13.420;2023-07-20T07:28:24;3.50;;;2.30;;
2119;SDS011;1066;52.540;13.420;2023-07-20T07:30:50;2.47;;;2.27;;
2119;SDS011;1066;52.540;13.420;2023-07-20T07:33:15;4.50;;;2.50;;
2119;SDS011;1066;52.540;13.420;2023-07-20T07:35:40;2.63;;;1.80;;
2119;SDS011;1066;52.540;13.420;2023-07-20T07:38:05;3.07;;;2.30;;
2119;SDS011;1066;52.540;13.420;2023-07-20T07:40:31;2.77;;;2.03;;
2119;SDS011;1066;52.540;13.420;2023-07-20T07:42:56;2.13;;;1.83;;
2119;SDS011;1066;52.540;13.420;2023-07-20T07:45:22;2.33;;;2.07;;
2119;SDS011;1066;52.540;13.420;2023-07-20T07:47:47;2.43;;;1.77;;
2119;SDS011;1066;52.540;13.420;2023-07-20T07:50:12;1.77;;;1.67;;
2119;SDS011;1066;52.540;13.420;2023-07-20T07:52:37;2.17;;;1.40;;
2119;SDS011;1066;52.540;13.420;2023-07-20T07:55:03;1.57;;;1.47;;
2119;SDS011;1066;52.540;13.420;2023-07-20T07:57:29;2.30;;;1.57;;
2119;SDS011;1066;52.540;13.420;2023-07-20T07:59:54;1.80;;;1.70;;
2119;SDS011;1066;52.540;13.420;2023-07-20T08:02:19;1.97;;;1.70;;
2119;SDS011;1066;52.540;13.420;2023-07-20T08:04:44;2.20;;;1.43;;
2119;SDS011;1066;52.540;13.420;2023-07-20T08:07:10;3.77;;;1.50;;
2119;SDS011;1066;52.540;13.420;2023-07-20T08:09:35;1.53;;;1.27;;
2119;SDS011;1066;52.540;13.420;2023-07-20T08:12:00;2.70;;;1.43;;
2119;SDS011;1066;52.540;13.420;2023-07-20T08:14:25;2.10;;;1.50;;
2119;SDS011;1066;52.540;13.420;2023-07-20T08:16:50;2.00;;;1.90;;
2119;SDS011;1066;52.540;13.420;2023-07-20T08:19:16;1.77;;;1.60;;
2119;SDS011;1066;52.540;13.420;2023-07-20T08:21:41;6.30;;;1.87;;
2119;SDS011;1066;52.540;13.420;2023-07-20T08:24:07;1.93;;;1.70;;
2119;SDS011;1066;52.540;13.420;2023-07-20T08:26:32;1.83;;;1.73;;
2119;SDS011;1066;52.540;13.420;2023-07-20T08:28:57;2.77;;;1.57;;
2119;SDS011;1066;52.540;13.420;2023-07-20T08:31:22;3.50;;;1.47;;
2119;SDS011;1066;52.540;13.420;2023-07-20T08:33:48;1.73;;;1.60;;
2119;SDS011;1066;52.540;13.420;2023-07-20T08:36:13;2.70;;;1.70;;
2119;SDS011;1066;52.540;13.420;2023-07-20T08:38:39;1.50;;;1.37;;
2119;SDS011;1066;52.540;13.420;2023-07-20T08:41:04;3.53;;;1.37;;
2119;SDS011;1066;52.540;13.420;2023-07-20T08:43:29;2.07;;;1.83;;
2119;SDS011;1066;52.540;13.420;2023-07-20T08:45:55;1.40;;;1.30;;
2119;SDS011;1066;52.540;13.420;2023-07-20T08:48:24;1.37;;;1.07;;
2119;SDS011;1066;52.540;13.420;2023-07-20T08:50:49;1.40;;;1.30;;
2119;SDS011;1066;52.540;13.420;2023-07-20T08:53:15;1.33;;;1.13;;
2119;SDS011;1066;52.540;13.420;2023-07-20T08:55:42;2.43;;;1.30;;
2119;SDS011;1066;52.540;13.420;2023-07-20T08:58:08;1.23;;;1.00;;
2119;SDS011;1066;52.540;13.420;2023-07-20T09:00:36;2.20;;;1.40;;
2119;SDS011;1066;52.540;13.420;2023-07-20T09:03:02;1.60;;;1.47;;
2119;SDS011;1066;52.540;13.420;2023-07-20T09:05:27;1.40;;;1.10;;
2119;SDS011;1066;52.540;13.420;2023-07-20T09:07:53;1.43;;;1.33;;
2119;SDS011;1066;52.540;13.420;2023-07-20T09:10:20;1.80;;;1.30;;
2119;SDS011;1066;52.540;13.420;2023-07-20T09:12:46;2.13;;;1.30;;
2119;SDS011;1066;52.540;13.420;2023-07-20T09:15:11;1.30;;;1.03;;
2119;SDS011;1066;52.540;13.420;2023-07-20T09:17:37;1.30;;;1.10;;
2119;SDS011;1066;52.540;13.420;2023-07-20T09:20:08;2.30;;;1.20;;
2119;SDS011;1066;52.540;13.420;2023-07-20T09:22:35;4.53;;;1.27;;
2119;SDS011;1066;52.540;13.420;2023-07-20T09:25:01;1.37;;;1.20;;
2119;SDS011;1066;52.540;13.420;2023-07-20T09:27:34;2.00;;;1.40;;
2119;SDS011;1066;52.540;13.420;2023-07-20T09:30:01;1.67;;;1.50;;
2119;SDS011;1066;52.540;13.420;2023-07-20T09:32:26;1.57;;;1.40;;
2119;SDS011;1066;52.540;13.420;2023-07-20T09:34:51;2.13;;;1.30;;
2119;SDS011;1066;52.540;13.420;2023-07-20T09:37:20;2.20;;;1.07;;
2119;SDS011;1066;52.540;13.420;2023-07-20T09:39:46;2.17;;;1.40;;
2119;SDS011;1066;52.540;13.420;2023-07-20T09:42:12;3.17;;;1.17;;
2119;SDS011;1066;52.540;13.420;2023-07-20T09:44:38;2.40;;;1.67;;
2119;SDS011;1066;52.540;13.420;2023-07-20T09:47:03;1.33;;;1.13;;
2119;SDS011;1066;52.540;13.420;2023-07-20T09:49:28;3.27;;;1.53;;
2119;SDS011;1066;52.540;13.420;2023-07-20T09:51:54;3.20;;;1.20;;
2119;SDS011;1066;52.540;13.420;2023-07-20T09:54:20;1.40;;;1.30;;
2119;SDS011;1066;52.540;13.420;2023-07-20T09:56:46;2.37;;;1.60;;
2119;SDS011;1066;52.540;13.420;2023-07-20T09:59:13;1.30;;;1.10;;
2119;SDS011;1066;52.540;13.420;2023-07-20T10:01:39;2.30;;;1.67;;
2119;SDS011;1066;52.540;13.420;2023-07-20T10:04:07;2.80;;;1.63;;
2119;SDS011;1066;52.540;13.420;2023-07-20T10:06:33;3.10;;;1.50;;
2119;SDS011;1066;52.540;13.420;2023-07-20T10:09:02;2.73;;;1.90;;
2119;SDS011;1066;52.540;13.420;2023-07-20T10:11:31;2.10;;;1.70;;
2119;SDS011;1066;52.540;13.420;2023-07-20T10:13:59;1.93;;;1.63;;
2119;SDS011;1066;52.540;13.420;2023-07-20T10:16:29;1.63;;;1.50;;
2119;SDS011;1066;52.540;13.420;2023-07-20T10:21:22;1.97;;;1.60;;
2119;SDS011;1066;52.540;13.420;2023-07-20T10:23:49;1.90;;;1.37;;
2119;SDS011;1066;52.540;13.420;2023-07-20T10:26:15;1.83;;;1.60;;
2119;SDS011;1066;52.540;13.420;2023-07-20T10:28:40;1.90;;;1.70;;
2119;SDS011;1066;52.540;13.420;2023-07-20T10:31:09;1.87;;;1.70;;
2119;SDS011;1066;52.540;13.420;2023-07-20T10:33:36;1.87;;;1.60;;
2119;SDS011;1066;52.540;13.420;2023-07-20T10:36:02;1.83;;;1.30;;
2119;SDS011;1066;52.540;13.420;2023-07-20T10:41:15;3.23;;;1.70;;
2119;SDS011;1066;52.540;13.420;2023-07-20T10:43:42;1.97;;;1.70;;
2119;SDS011;1066;52.540;13.420;2023-07-20T10:46:07;2.50;;;1.77;;
2119;SDS011;1066;52.540;13.420;2023-07-20T10:48:35;1.73;;;1.63;;
2119;SDS011;1066;52.540;13.420;2023-07-20T10:51:20;2.87;;;1.60;;
2119;SDS011;1066;52.540;13.420;2023-07-20T10:53:47;3.13;;;2.00;;
2119;SDS011;1066;52.540;13.420;2023-07-20T10:56:13;3.50;;;1.60;;
2119;SDS011;1066;52.540;13.420;2023-07-20T10:58:41;4.00;;;1.60;;
2119;SDS011;1066;52.540;13.420;2023-07-20T11:01:07;2.03;;;1.77;;
2119;SDS011;1066;52.540;13.420;2023-07-20T11:03:33;1.50;;;1.40;;
2119;SDS011;1066;52.540;13.420;2023-07-20T11:05:59;1.90;;;1.50;;
2119;SDS011;1066;52.540;13.420;2023-07-20T11:08:42;1.97;;;1.67;;
2119;SDS011;1066;52.540;13.420;2023-07-20T11:11:27;1.73;;;1.37;;
2119;SDS011;1066;52.540;13.420;2023-07-20T11:13:56;1.80;;;1.40;;
2119;SDS011;1066;52.540;13.420;2023-07-20T11:16:33;1.73;;;1.63;;
2119;SDS011;1066;52.540;13.420;2023-07-20T11:18:59;2.63;;;1.77;;
2119;SDS011;1066;52.540;13.420;2023-07-20T11:21:24;2.00;;;1.50;;
2119;SDS011;1066;52.540;13.420;2023-07-20T11:23:51;4.70;;;1.63;;
2119;SDS011;1066;52.540;13.420;2023-07-20T11:26:17;2.43;;;2.13;;
2119;SDS011;1066;52.540;13.420;2023-07-20T11:28:47;3.87;;;1.60;;
2119;SDS011;1066;52.540;13.420;2023-07-20T11:31:14;2.03;;;1.77;;
2119;SDS011;1066;52.540;13.420;2023-07-20T11:33:41;1.60;;;1.50;;
2119;SDS011;1066;52.540;13.420;2023-07-20T11:36:07;2.20;;;1.87;;
2119;SDS011;1066;52.540;13.420;2023-07-20T11:38:33;3.33;;;2.90;;
2119;SDS011;1066;52.540;13.420;2023-07-20T11:40:58;3.67;;;1.77;;
2119;SDS011;1066;52.540;13.420;2023-07-20T11:43:23;3.13;;;1.33;;
2119;SDS011;1066;52.540;13.420;2023-07-20T11:45:49;3.10;;;2.00;;
2119;SDS011;1066;52.540;13.420;2023-07-20T11:48:15;1.80;;;1.53;;
2119;SDS011;1066;52.540;13.420;2023-07-20T11:50:40;2.40;;;1.73;;
2119;SDS011;1066;52.540;13.420;2023-07-20T11:53:05;1.50;;;1.40;;
2119;SDS011;1066;52.540;13.420;2023-07-20T11:55:31;2.00;;;1.80;;
2119;SDS011;1066;52.540;13.420;2023-07-20T11:58:03;2.43;;;1.90;;
2119;SDS011;1066;52.540;13.420;2023-07-20T12:00:28;2.87;;;2.00;;
2119;SDS011;1066;52.540;13.420;2023-07-20T12:02:53;2.33;;;1.60;;
2119;SDS011;1066;52.540;13.420;2023-07-20T12:05:19;2.27;;;1.70;;
2119;SDS011;1066;52.540;13.420;2023-07-20T12:07:44;1.93;;;1.57;;
2119;SDS011;1066;52.540;13.420;2023-07-20T12:10:10;3.40;;;1.97;;
2119;SDS011;1066;52.540;13.420;2023-07-20T12:12:39;3.50;;;1.77;;
2119;SDS011;1066;52.540;13.420;2023-07-20T12:15:15;1.77;;;1.40;;
2119;SDS011;1066;52.540;13.420;2023-07-20T12:17:43;1.70;;;1.40;;
2119;SDS011;1066;52.540;13.420;2023-07-20T12:20:09;1.93;;;1.30;;
2119;SDS011;1066;52.540;13.420;2023-07-20T12:22:38;1.40;;;1.23;;
2119;SDS011;1066;52.540;13.420;2023-07-20T12:25:05;4.37;;;2.20;;
2119;SDS011;1066;52.540;13.420;2023-07-20T12:27:31;1.50;;;1.40;;
2119;SDS011;1066;52.540;13.420;2023-07-20T12:29:56;2.03;;;1.60;;
2119;SDS011;1066;52.540;13.420;2023-07-20T12:32:22;1.63;;;1.40;;
2119;SDS011;1066;52.540;13.420;2023-07-20T12:34:48;1.57;;;1.30;;
2119;SDS011;1066;52.540;13.420;2023-07-20T12:37:13;2.57;;;1.50;;
2119;SDS011;1066;52.540;13.420;2023-07-20T12:39:38;3.93;;;1.10;;
2119;SDS011;1066;52.540;13.420;2023-07-20T12:42:05;1.80;;;1.23;;
2119;SDS011;1066;52.540;13.420;2023-07-20T12:44:31;1.57;;;1.30;;
2119;SDS011;1066;52.540;13.420;2023-07-20T12:46:56;4.23;;;2.10;;
2119;SDS011;1066;52.540;13.420;2023-07-20T12:49:21;1.87;;;1.50;;
2119;SDS011;1066;52.540;13.420;2023-07-20T12:51:46;3.20;;;2.00;;
2119;SDS011;1066;52.540;13.420;2023-07-20T12:54:11;2.00;;;1.80;;
2119;SDS011;1066;52.540;13.420;2023-07-20T12:56:37;1.47;;;1.30;;
2119;SDS011;1066;52.540;13.420;2023-07-20T12:59:02;1.80;;;1.20;;
2119;SDS011;1066;52.540;13.420;2023-07-20T13:01:27;1.33;;;0.90;;
2119;SDS011;1066;52.540;13.420;2023-07-20T13:03:53;1.80;;;1.23;;
2119;SDS011;1066;52.540;13.420;2023-07-20T13:06:19;1.40;;;1.20;;
2119;SDS011;1066;52.540;13.420;2023-07-20T13:08:45;1.37;;;1.00;;
2119;SDS011;1066;52.540;13.420;2023-07-20T13:11:10;1.90;;;1.00;;
2119;SDS011;1066;52.540;13.420;2023-07-20T13:13:35;1.40;;;1.20;;
2119;SDS011;1066;52.540;13.420;2023-07-20T13:16:00;1.30;;;1.00;;
2119;SDS011;1066;52.540;13.420;2023-07-20T13:18:26;1.40;;;1.10;;
2119;SDS011;1066;52.540;13.420;2023-07-20T13:20:51;1.20;;;0.90;;
2119;SDS011;1066;52.540;13.420;2023-07-20T13:23:17;2.50;;;1.03;;
2119;SDS011;1066;52.540;13.420;2023-07-20T13:25:43;2.30;;;1.40;;
2119;SDS011;1066;52.540;13.420;2023-07-20T13:28:08;1.30;;;1.10;;
2119;SDS011;1066;52.540;13.420;2023-07-20T13:30:33;2.10;;;1.40;;
2119;SDS011;1066;52.540;13.420;2023-07-20T13:32:58;2.00;;;1.33;;
2119;SDS011;1066;52.540;13.420;2023-07-20T13:35:24;1.73;;;1.40;;
2119;SDS011;1066;52.540;13.420;2023-07-20T13:37:49;1.40;;;1.10;;
2119;SDS011;1066;52.540;13.420;2023-07-20T13:40:15;4.60;;;1.20;;
2119;SDS011;1066;52.540;13.420;2023-07-20T13:42:42;1.63;;;1.47;;
2119;SDS011;1066;52.540;13.420;2023-07-20T13:45:07;1.07;;;0.93;;
2119;SDS011;1066;52.540;13.420;2023-07-20T13:47:35;2.33;;;1.67;;
2119;SDS011;1066;52.540;13.420;2023-07-20T13:50:00;2.37;;;1.50;;
2119;SDS011;1066;52.540;13.420;2023-07-20T13:52:26;2.10;;;1.30;;
2119;SDS011;1066;52.540;13.420;2023-07-20T13:54:51;1.50;;;1.40;;
2119;SDS011;1066;52.540;13.420;2023-07-20T13:57:16;1.60;;;1.40;;
2119;SDS011;1066;52.540;13.420;2023-07-20T13:59:42;2.90;;;1.60;;
2119;SDS011;1066;52.540;13.420;2023-07-20T14:02:07;5.60;;;2.20;;
2119;SDS011;1066;52.540;13.420;2023-07-20T14:04:33;2.10;;;1.40;;
2119;SDS011;1066;52.540;13.420;2023-07-20T14:06:58;2.93;;;1.30;;
2119;SDS011;1066;52.540;13.420;2023-07-20T14:09:23;1.87;;;1.50;;
2119;SDS011;1066;52.540;13.420;2023-07-20T14:11:49;2.17;;;1.23;;
2119;SDS011;1066;52.540;13.420;2023-07-20T14:14:14;1.63;;;1.53;;
2119;SDS011;1066;52.540;13.420;2023-07-20T14:16:39;3.27;;;1.90;;
2119;SDS011;1066;52.540;13.420;2023-07-20T14:19:04;2.00;;;1.40;;
2119;SDS011;1066;52.540;13.420;2023-07-20T14:21:30;3.40;;;1.30;;
2119;SDS011;1066;52.540;13.420;2023-07-20T14:23:56;1.97;;;1.20;;
2119;SDS011;1066;52.540;13.420;2023-07-20T14:26:22;1.67;;;1.40;;
2119;SDS011;1066;52.540;13.420;2023-07-20T14:28:48;1.60;;;1.50;;
2119;SDS011;1066;52.540;13.420;2023-07-20T14:31:13;2.10;;;1.80;;
2119;SDS011;1066;52.540;13.420;2023-07-20T14:33:38;2.00;;;1.73;;
2119;SDS011;1066;52.540;13.420;2023-07-20T14:36:04;2.40;;;1.50;;
2119;SDS011;1066;52.540;13.420;2023-07-20T14:38:30;2.40;;;2.17;;
2119;SDS011;1066;52.540;13.420;2023-07-20T14:40:56;2.17;;;1.50;;
2119;SDS011;1066;52.540;13.420;2023-07-20T14:43:21;1.57;;;1.37;;
2119;SDS011;1066;52.540;13.420;2023-07-20T14:45:46;2.87;;;2.00;;
2119;SDS011;1066;52.540;13.420;2023-07-20T14:48:11;3.20;;;1.60;;
2119;SDS011;1066;52.540;13.420;2023-07-20T14:50:37;3.20;;;1.67;;
2119;SDS011;1066;52.540;13.420;2023-07-20T14:53:02;2.20;;;1.87;;
2119;SDS011;1066;52.540;13.420;2023-07-20T14:55:28;2.43;;;2.03;;
2119;SDS011;1066;52.540;13.420;2023-07-20T14:57:53;3.30;;;2.07;;
2119;SDS011;1066;52.540;13.420;2023-07-20T15:00:18;2.87;;;1.97;;
2119;SDS011;1066;52.540;13.420;2023-07-20T15:02:44;1.70;;;1.50;;
2119;SDS011;1066;52.540;13.420;2023-07-20T15:05:10;3.30;;;2.17;;